• Join FlightAware (Why Join?)
  • Login
  • US Flag 
01:33PM EST


 

Airport Tracker/Info


-or-


 

Live Flight TrackerFlight Track Log ✈ SWA3457 ✈ 05-Jan-2013 ✈ KSAN - KPHX

Flight Track Log - Related Links

Times and Time Zones

All times are in EST time to prevent confusion due to time zone crossing. See the SWA3457 flight status page for this flight to view local times or setup timezone preferences in your user account.

Time Position Orientation Groundspeed Altitude Reporting Facility
EST Latitude Longitude Course Direction KTS MPH feet Rate Location/Type
08:05PM 32.7500 -117.2333 279° West 179 206 1,900  Level Southern California TRACON
08:06PM 32.7581 -117.2961 279° West 211 243 4,300 2,876 Climbing Los Angeles Center
08:07PM 32.7050 -117.3292 208° Southwest 238 274 7,700 3,484 Climbing Los Angeles Center
08:08PM 32.6669 -117.2331 115° Southeast 280 322 11,500 2,927 Climbing Los Angeles Center
08:09PM 32.6456 -117.1353 105° East 307 353 13,700 2,146 Climbing Los Angeles Center
08:10PM 32.6203 -117.0225 105° East 359 413 15,900 2,129 Climbing Los Angeles Center
08:11PM 32.6183 -116.9008 91° East 377 434 18,100 2,129 Climbing Los Angeles Center
08:12PM 32.6317 -116.7686 83° East 399 459 20,300 2,323 Climbing Los Angeles Center
08:13PM 32.6469 -116.6069 84° East 412 474 22,900 1,887 Climbing Los Angeles Center
08:14PM 32.6578 -116.4947 83° East 430 495 24,200 1,887 Climbing Los Angeles Center
08:15PM 32.6731 -116.3244 84° East 439 505 26,800 1,935 Climbing Los Angeles Center
08:16PM 32.6872 -116.1781 83° East 450 518 28,200 1,403 Climbing Los Angeles Center
08:17PM 32.7017 -116.0278 83° East 460 529 29,700 1,366 Climbing Los Angeles Center
08:18PM 32.7183 -115.8439 84° East 468 539 31,000 634 Climbing Los Angeles Center
08:19PM 32.7328 -115.6864 84° East 477 549 31,000  Level Los Angeles Center
08:20PM 32.7478 -115.5264 84° East 485 558 31,000  Level Los Angeles Center
08:21PM 32.7553 -115.3658 87° East 489 563 31,000 -48 Level Los Angeles Center
08:22PM 32.7561 -115.2081 90° East 483 556 30,900  Descending Los Angeles Center
08:23PM 32.7581 -115.0575 89° East 462 532 31,000 48 Climbing Los Angeles Center
08:24PM 32.7619 -114.8731 89° East 464 534 31,000  Level Los Angeles Center
08:25PM 32.7639 -114.7169 89° East 470 541 31,000  Level Los Angeles Center
08:26PM 32.7661 -114.5586 89° East 476 548 31,000 -435 Level Los Angeles Center
08:27PM 32.7681 -114.4003 89° East 480 552 30,100 -1,597 Descending Los Angeles Center
08:29PM 32.7703 -114.2456 89° East 474 545 27,700 -2,341 Descending Los Angeles Center
08:30PM 32.7728 -114.0978 89° East 456 525 25,300 -1,780 Descending Los Angeles Center
08:30PM 32.7761 -114.0022 88° East 447 514 25,000 -198 Descending Albuquerque Center
08:31PM 32.8100 -113.8669 73° East 436 502 25,000  Level Albuquerque Center
08:32PM 32.8675 -113.7417 61° Northeast 432 497 25,000 -49 Level Albuquerque Center
08:33PM 32.9242 -113.6144 62° Northeast 434 499 24,900 -829 Descending Albuquerque Center
08:34PM 32.9806 -113.4872 62° Northeast 433 498 23,300 -1,805 Descending Albuquerque Center
08:35PM 33.0353 -113.3664 62° Northeast 421 484 21,200 -2,049 Descending Albuquerque Center
08:36PM 33.0875 -113.2519 61° Northeast 403 464 19,100 -1,951 Descending Albuquerque Center
08:37PM 33.1361 -113.1422 62° Northeast 382 440 17,200 -1,967 Descending Albuquerque Center
08:38PM 33.1844 -113.0350 62° Northeast 371 427 15,100 -2,049 Descending Albuquerque Center
08:39PM 33.2306 -112.9325 62° Northeast 358 412 13,000 -1,707 Descending Albuquerque Center
08:40PM 33.2817 -112.8156 62° Northeast 331 381 11,600 -1,366 Descending Albuquerque Center
08:41PM 33.3169 -112.7236 65° Northeast 305 351 10,200 -878 Descending Albuquerque Center
08:42PM 33.3483 -112.6364 67° East 291 335 9,800 -738 Descending Albuquerque Center
08:43PM 33.3772 -112.5661 64° Northeast 274 315 8,700 -1,024 Descending Albuquerque Center
08:44PM 33.4117 -112.4736 66° East 256 295 7,700 -1,024 Descending Albuquerque Center
08:45PM 33.4281 -112.3981 75° East 241 277 6,600 -984 Descending Albuquerque Center
08:46PM 33.4283 -112.3208 90° East 233 268 5,700 -829 Descending Albuquerque Center
08:47PM 33.4286 -112.2481 90° East 221 254 4,900 -976 Descending Albuquerque Center
08:48PM 33.4289 -112.1797 90° East 207 238 3,700 -1,024 Descending Albuquerque Center
08:49PM 33.4294 -112.1200 89° East 179 206 2,800 -829 Descending Albuquerque Center
08:50PM 33.4308 -112.0717 88° East 148 170 2,000 -787 Descending Albuquerque Center
08:52PM 33.4306 -112.0250 90° East 142 163 1,200 -787 Descending Albuquerque Center
08:53PM 33.4343 -112.0116 90° East  Level Estimated